createdAt,value
2023-04-05T00:00:40.843Z,9.07
2023-04-05T00:03:11.174Z,10.18
2023-04-05T00:05:43.044Z,7.78
2023-04-05T00:08:13.905Z,8.10
2023-04-05T00:10:42.399Z,8.88
2023-04-05T00:13:14.494Z,9.00
2023-04-05T00:15:44.051Z,9.77
2023-04-05T00:18:21.903Z,10.15
2023-04-05T00:20:50.387Z,9.73
2023-04-05T00:23:20.491Z,8.48
2023-04-05T00:25:49.112Z,8.50
2023-04-05T00:28:18.930Z,10.02
2023-04-05T00:30:47.373Z,8.23
2023-04-05T00:33:16.093Z,11.73
2023-04-05T00:35:44.494Z,12.90
2023-04-05T00:38:12.854Z,9.43
2023-04-05T00:40:41.431Z,9.90
2023-04-05T00:43:09.890Z,10.85
2023-04-05T00:45:39.774Z,7.47
2023-04-05T00:48:09.524Z,8.68
2023-04-05T00:50:39.145Z,8.98
2023-04-05T00:53:07.807Z,10.45
2023-04-05T00:55:36.429Z,10.98
2023-04-05T00:58:04.816Z,8.98
2023-04-05T01:00:33.544Z,8.68
2023-04-05T01:03:04.847Z,11.98
2023-04-05T01:05:37.160Z,7.18
2023-04-05T01:08:09.640Z,10.02
2023-04-05T01:10:39.979Z,8.32
2023-04-05T01:13:08.831Z,7.93
2023-04-05T01:15:37.209Z,9.07
2023-04-05T01:18:10.692Z,9.32
2023-04-05T01:20:43.046Z,8.82
2023-04-05T01:23:37.545Z,8.05
2023-04-05T01:26:25.570Z,8.55
2023-04-05T01:29:03.582Z,7.60
2023-04-05T01:31:35.864Z,10.68
2023-04-05T01:34:09.956Z,7.05
2023-04-05T01:36:41.564Z,8.38
2023-04-05T01:39:10.933Z,10.23
2023-04-05T01:41:40.610Z,8.63
2023-04-05T01:44:09.228Z,7.72
2023-04-05T01:46:39.012Z,8.88
2023-04-05T01:49:07.560Z,8.27
2023-04-05T01:51:36.485Z,6.95
2023-04-05T01:54:04.934Z,9.20
2023-04-05T01:56:33.333Z,7.95
2023-04-05T01:59:01.706Z,8.23
2023-04-05T02:01:30.330Z,7.85
2023-04-05T02:04:00.546Z,10.80
2023-04-05T02:06:28.953Z,9.10
2023-04-05T02:09:00.921Z,8.75
2023-04-05T02:11:29.365Z,7.57
2023-04-05T02:14:00.326Z,8.60
2023-04-05T02:16:28.872Z,7.65
2023-04-05T02:18:57.944Z,10.25
2023-04-05T02:21:28.143Z,8.15
2023-04-05T02:23:56.536Z,8.77
2023-04-05T02:26:24.934Z,9.23
2023-04-05T02:28:53.331Z,9.93
2023-04-05T02:31:22.971Z,8.15
2023-04-05T02:33:51.409Z,7.53
2023-04-05T02:36:19.846Z,8.15
2023-04-05T02:38:49.699Z,7.45
2023-04-05T02:41:18.402Z,9.48
2023-04-05T02:43:46.778Z,9.38
2023-04-05T02:46:15.195Z,9.90
2023-04-05T02:48:44.777Z,7.65
2023-04-05T02:51:15.794Z,8.02
2023-04-05T02:53:44.858Z,8.13
2023-04-05T02:56:17.093Z,7.78
2023-04-05T02:58:49.245Z,6.82
2023-04-05T03:01:22.852Z,9.63
2023-04-05T03:03:51.992Z,7.85
2023-04-05T03:06:20.747Z,8.48
2023-04-05T03:08:50.876Z,9.40
2023-04-05T03:11:24.789Z,7.25
2023-04-05T03:13:57.827Z,7.68
2023-04-05T03:16:43.199Z,9.25
2023-04-05T03:19:38.678Z,10.13
2023-04-05T03:22:21.794Z,8.07
2023-04-05T03:24:50.638Z,8.95
2023-04-05T03:27:22.000Z,11.07
2023-04-05T03:30:01.156Z,7.90
2023-04-05T03:32:30.888Z,9.32
2023-04-05T03:35:06.808Z,9.43
2023-04-05T03:37:37.012Z,7.95
2023-04-05T03:40:10.504Z,7.72
2023-04-05T03:42:40.584Z,9.10
2023-04-05T03:45:09.445Z,7.68
2023-04-05T03:47:37.898Z,8.73
2023-04-05T03:50:09.551Z,11.68
2023-04-05T03:52:38.090Z,8.32
2023-04-05T03:55:07.899Z,11.70
2023-04-05T03:57:39.180Z,10.77
2023-04-05T04:00:23.713Z,9.40
2023-04-05T04:03:10.424Z,9.27
2023-04-05T04:05:42.929Z,13.30
2023-04-05T04:08:13.644Z,9.80
2023-04-05T04:10:42.100Z,10.52
2023-04-05T04:13:33.664Z,7.82
2023-04-05T04:16:08.441Z,9.02
2023-04-05T04:18:47.200Z,11.25
2023-04-05T04:21:39.507Z,11.05
2023-04-05T04:24:22.862Z,13.13
2023-04-05T04:27:01.058Z,10.23
2023-04-05T04:29:47.021Z,8.40
2023-04-05T04:32:54.775Z,8.05
2023-04-05T04:35:39.552Z,10.00
2023-04-05T04:38:20.404Z,9.88
2023-04-05T04:41:27.523Z,9.00
2023-04-05T04:44:15.123Z,7.60
2023-04-05T04:47:02.345Z,8.50
2023-04-05T04:49:49.483Z,14.73
2023-04-05T04:52:17.885Z,8.85
2023-04-05T04:54:47.145Z,7.65
2023-04-05T04:57:16.024Z,8.43
2023-04-05T04:59:44.308Z,10.85
2023-04-05T05:02:12.745Z,9.50
2023-04-05T05:04:42.268Z,8.50
2023-04-05T05:07:12.734Z,9.55
2023-04-05T05:09:41.107Z,10.18
2023-04-05T05:12:09.362Z,9.90
2023-04-05T05:14:37.705Z,10.90
2023-04-05T05:17:06.397Z,7.68
2023-04-05T05:19:34.845Z,12.02
2023-04-05T05:22:03.657Z,10.70
2023-04-05T05:24:33.717Z,12.70
2023-04-05T05:27:02.186Z,9.98
2023-04-05T05:29:30.821Z,11.57
2023-04-05T05:31:59.202Z,11.98
2023-04-05T05:34:28.011Z,12.20
2023-04-05T05:36:58.997Z,10.57
2023-04-05T05:39:27.395Z,10.80
2023-04-05T05:41:59.440Z,15.10
2023-04-05T05:44:27.702Z,12.90
2023-04-05T05:46:56.060Z,12.40
2023-04-05T05:49:24.557Z,9.13
2023-04-05T05:51:53.567Z,9.60
2023-04-05T05:54:22.080Z,13.13
2023-04-05T05:56:57.537Z,10.88
2023-04-05T06:02:29.658Z,12.82
2023-04-05T06:05:25.542Z,11.57
2023-04-05T06:07:59.979Z,12.43
2023-04-05T06:14:13.743Z,11.10
2023-04-05T06:17:06.688Z,12.93
2023-04-05T06:19:43.458Z,11.40
2023-04-05T06:22:12.436Z,10.88
2023-04-05T06:24:41.123Z,10.98
2023-04-05T06:27:09.808Z,10.25
2023-04-05T06:29:38.338Z,9.35
2023-04-05T06:32:08.290Z,11.45
2023-04-05T06:34:36.884Z,7.80
2023-04-05T06:37:06.060Z,9.75
2023-04-05T06:39:34.545Z,9.27
2023-04-05T06:42:03.022Z,9.07
2023-04-05T06:44:40.154Z,9.93
2023-04-05T06:47:09.944Z,8.35
2023-04-05T06:49:38.238Z,12.77
2023-04-05T06:52:06.870Z,10.02
2023-04-05T06:54:35.247Z,10.57
2023-04-05T06:57:03.663Z,8.75
2023-04-05T06:59:32.093Z,9.52
2023-04-05T07:02:00.901Z,9.65
2023-04-05T07:04:39.573Z,11.68
2023-04-05T07:07:08.188Z,9.77
2023-04-05T07:09:39.617Z,8.30
2023-04-05T07:12:12.828Z,7.82
2023-04-05T07:14:46.743Z,8.82
2023-04-05T07:17:16.448Z,9.27
2023-04-05T07:19:46.190Z,7.50
2023-04-05T07:22:14.594Z,8.75
2023-04-05T07:24:42.970Z,10.38
2023-04-05T07:27:11.407Z,8.00
2023-04-05T07:29:42.608Z,11.68
2023-04-05T07:32:11.626Z,8.45
2023-04-05T07:34:39.975Z,9.50
2023-04-05T07:37:09.663Z,12.65
2023-04-05T07:39:38.238Z,10.93
2023-04-05T07:42:06.937Z,12.48
2023-04-05T07:44:35.388Z,8.60
2023-04-05T07:47:04.127Z,8.63
2023-04-05T07:49:32.758Z,7.07
2023-04-05T07:52:01.275Z,8.52
2023-04-05T07:54:33.438Z,9.48
2023-04-05T07:57:02.634Z,8.95
2023-04-05T07:59:31.239Z,8.40
2023-04-05T08:02:04.914Z,7.90
2023-04-05T08:04:52.295Z,7.70
2023-04-05T08:07:24.404Z,8.35
2023-04-05T08:09:57.447Z,7.38
2023-04-05T08:12:25.924Z,8.10
2023-04-05T08:14:54.282Z,8.18
2023-04-05T08:17:23.656Z,6.72
2023-04-05T08:19:53.151Z,8.30
2023-04-05T08:22:21.589Z,7.75
2023-04-05T08:24:50.050Z,7.97
2023-04-05T08:27:19.927Z,7.82
2023-04-05T08:29:48.535Z,7.47
2023-04-05T08:32:17.073Z,8.80
2023-04-05T08:34:45.602Z,10.32
2023-04-05T08:37:14.260Z,7.50
2023-04-05T08:39:42.803Z,6.63
2023-04-05T08:42:13.404Z,6.53
2023-04-05T08:44:43.032Z,6.93
2023-04-05T08:47:15.172Z,7.05
2023-04-05T08:49:44.641Z,8.38
2023-04-05T08:52:13.023Z,6.05
2023-04-05T08:54:41.613Z,7.47
2023-04-05T08:57:10.430Z,6.90
2023-04-05T08:59:42.674Z,6.38
2023-04-05T09:02:20.706Z,6.18
2023-04-05T09:04:50.245Z,9.57
2023-04-05T09:07:19.279Z,7.72
2023-04-05T09:09:48.721Z,6.07
2023-04-05T09:12:17.192Z,9.45
2023-04-05T09:14:46.136Z,8.57
2023-04-05T09:17:16.992Z,5.75
2023-04-05T09:19:45.594Z,6.68
2023-04-05T09:22:18.385Z,6.88
2023-04-05T09:24:47.399Z,6.03
2023-04-05T09:27:19.684Z,7.78
2023-04-05T09:29:55.003Z,7.85
2023-04-05T09:32:28.275Z,7.03
2023-04-05T09:34:56.764Z,5.97
2023-04-05T09:37:28.538Z,6.53
2023-04-05T09:40:03.919Z,6.95
2023-04-05T09:42:33.947Z,7.45
2023-04-05T09:45:04.941Z,6.53
2023-04-05T09:47:49.689Z,8.77
2023-04-05T09:50:22.011Z,6.20
2023-04-05T09:52:51.604Z,9.85
2023-04-05T09:55:27.846Z,9.38
2023-04-05T09:57:56.344Z,7.95
2023-04-05T10:00:28.433Z,7.28
2023-04-05T10:03:03.978Z,7.63
2023-04-05T10:05:36.298Z,6.20
2023-04-05T10:08:07.200Z,6.00
2023-04-05T10:10:39.894Z,6.70
2023-04-05T10:13:08.816Z,6.43
2023-04-05T10:15:37.275Z,7.85
2023-04-05T10:18:11.549Z,8.25
2023-04-05T10:20:41.835Z,7.85
2023-04-05T10:23:14.455Z,6.72
2023-04-05T10:25:51.640Z,8.38
2023-04-05T10:28:30.306Z,9.98
2023-04-05T10:31:01.351Z,7.88
2023-04-05T10:33:32.518Z,8.18
2023-04-05T10:36:02.885Z,7.35
2023-04-05T10:38:31.561Z,7.97
2023-04-05T10:41:12.295Z,7.05
2023-04-05T10:43:41.193Z,6.18
2023-04-05T10:46:10.146Z,7.38
2023-04-05T10:48:46.238Z,7.35
2023-04-05T10:51:15.436Z,8.93
2023-04-05T10:53:43.847Z,7.80
2023-04-05T10:56:13.796Z,5.78
2023-04-05T10:58:42.934Z,7.78
2023-04-05T11:01:13.705Z,7.68
2023-04-05T11:03:48.606Z,8.93
2023-04-05T11:06:22.104Z,8.77
2023-04-05T11:08:52.117Z,7.93
2023-04-05T11:11:21.253Z,8.20
2023-04-05T11:13:50.580Z,7.22
2023-04-05T11:16:19.192Z,6.15
2023-04-05T11:18:49.388Z,7.32
2023-04-05T11:21:25.044Z,6.72
2023-04-05T11:24:18.885Z,7.72
2023-04-05T11:26:57.406Z,5.68
2023-04-05T11:29:44.607Z,6.45
2023-04-05T11:32:13.914Z,5.82
2023-04-05T11:34:44.990Z,6.13
2023-04-05T11:37:13.431Z,6.28
2023-04-05T11:39:42.169Z,6.93
2023-04-05T11:42:13.014Z,9.43
2023-04-05T11:44:45.587Z,7.50
2023-04-05T11:47:14.211Z,8.45
2023-04-05T11:49:43.037Z,8.27
2023-04-05T11:52:13.401Z,5.90
2023-04-05T11:54:46.025Z,6.57
2023-04-05T11:57:16.625Z,5.80
2023-04-05T11:59:45.575Z,5.78
2023-04-05T12:02:20.493Z,6.63
2023-04-05T12:05:02.333Z,7.45
2023-04-05T12:07:37.057Z,8.82
2023-04-05T12:14:13.969Z,5.68
2023-04-05T12:16:52.843Z,6.68
2023-04-05T12:19:26.194Z,8.25
2023-04-05T12:21:54.489Z,6.18
2023-04-05T12:24:24.176Z,7.85
2023-04-05T12:29:21.037Z,7.45
2023-04-05T12:31:52.136Z,7.93
2023-04-05T12:34:25.693Z,6.65
2023-04-05T12:36:54.009Z,8.57
2023-04-05T12:39:24.516Z,6.28
2023-04-05T12:42:00.846Z,7.00
2023-04-05T12:44:34.539Z,6.43
2023-04-05T12:47:05.095Z,7.68
2023-04-05T12:49:37.136Z,7.60
2023-04-05T12:52:05.639Z,7.63
2023-04-05T12:54:35.445Z,8.82
2023-04-05T12:57:08.669Z,9.80
2023-04-05T12:59:37.057Z,6.63
2023-04-05T13:02:07.989Z,6.50
2023-04-05T13:04:40.577Z,7.65
2023-04-05T13:07:09.904Z,6.95
2023-04-05T13:09:39.588Z,5.78
2023-04-05T13:12:07.983Z,6.78
2023-04-05T13:14:36.293Z,8.32
2023-04-05T13:17:04.793Z,5.93
2023-04-05T13:19:33.222Z,9.23
2023-04-05T13:22:02.100Z,6.35
2023-04-05T13:24:30.516Z,7.93
2023-04-05T13:27:00.225Z,7.57
2023-04-05T13:29:28.578Z,8.30
2023-04-05T13:31:57.138Z,6.40
2023-04-05T13:34:25.599Z,7.45
2023-04-05T13:36:53.851Z,9.05
2023-04-05T13:39:22.275Z,6.35
2023-04-05T13:41:50.609Z,11.02
2023-04-05T13:44:20.472Z,7.63
2023-04-05T13:46:48.968Z,7.20
2023-04-05T13:49:17.445Z,8.25
2023-04-05T13:51:45.818Z,9.05
2023-04-05T13:54:14.141Z,6.78
2023-04-05T13:56:42.430Z,6.35
2023-04-05T13:59:11.112Z,7.10
2023-04-05T14:01:44.237Z,5.57
2023-04-05T14:04:12.692Z,7.72
2023-04-05T14:06:41.139Z,7.57
2023-04-05T14:09:09.560Z,6.75
2023-04-05T14:11:38.694Z,8.40
2023-04-05T14:14:07.071Z,6.50
2023-04-05T14:16:36.735Z,5.82
2023-04-05T14:19:07.498Z,6.82
2023-04-05T14:21:37.213Z,8.43
2023-04-05T14:24:05.727Z,6.38
2023-04-05T14:26:34.274Z,7.35
2023-04-05T14:29:02.692Z,8.55
2023-04-05T14:31:31.257Z,7.88
2023-04-05T14:33:59.788Z,6.25
2023-04-05T14:36:29.860Z,7.45
2023-04-05T14:38:58.578Z,6.63
2023-04-05T14:41:27.241Z,8.25
2023-04-05T14:43:55.831Z,6.68
2023-04-05T14:46:24.860Z,6.45
2023-04-05T14:48:53.313Z,7.40
2023-04-05T14:51:21.793Z,6.40
2023-04-05T14:53:51.672Z,5.05
2023-04-05T14:56:20.217Z,6.53
2023-04-05T14:58:48.744Z,6.40
2023-04-05T15:01:17.241Z,6.55
2023-04-05T15:03:48.183Z,5.55
2023-04-05T15:06:17.088Z,8.73
2023-04-05T15:08:45.655Z,6.15
2023-04-05T15:11:15.518Z,5.47
2023-04-05T15:13:43.902Z,6.22
2023-04-05T15:16:12.491Z,7.78
2023-04-05T15:18:41.113Z,6.28
2023-04-05T15:21:09.588Z,10.63
2023-04-05T15:23:38.098Z,6.55
2023-04-05T15:26:06.621Z,6.57
2023-04-05T15:28:36.587Z,5.82
2023-04-05T15:31:05.359Z,6.13
2023-04-05T15:33:33.829Z,8.02
2023-04-05T15:36:02.441Z,6.35
2023-04-05T15:38:31.076Z,8.02
2023-04-05T15:40:59.564Z,6.00
2023-04-05T15:43:30.585Z,6.18
2023-04-05T15:46:03.653Z,6.13
2023-04-05T15:48:32.215Z,7.13
2023-04-05T15:51:01.074Z,11.23
2023-04-05T15:53:29.532Z,7.53
2023-04-05T15:55:58.288Z,5.80
2023-04-05T15:58:26.788Z,6.80
2023-04-05T16:00:57.983Z,7.95
2023-04-05T16:03:37.587Z,6.38
2023-04-05T16:06:07.983Z,5.30
2023-04-05T16:08:39.113Z,7.50
2023-04-05T16:11:08.376Z,5.93
2023-04-05T16:13:36.819Z,5.80
2023-04-05T16:16:06.998Z,6.25
2023-04-05T16:18:37.420Z,7.47
2023-04-05T16:21:07.214Z,6.13
2023-04-05T16:23:35.756Z,6.45
2023-04-05T16:26:04.908Z,9.00
2023-04-05T16:28:33.546Z,8.90
2023-04-05T16:31:02.441Z,5.95
2023-04-05T16:33:30.923Z,7.38
2023-04-05T16:36:00.826Z,7.53
2023-04-05T16:38:29.471Z,6.45
2023-04-05T16:40:57.858Z,7.70
2023-04-05T16:43:26.256Z,6.50
2023-04-05T16:45:54.676Z,6.45
2023-04-05T16:48:23.144Z,6.38
2023-04-05T16:50:51.593Z,6.90
2023-04-05T16:53:22.931Z,5.13
2023-04-05T16:55:51.937Z,6.53
2023-04-05T16:58:20.397Z,8.38
2023-04-05T17:00:58.654Z,6.95
2023-04-05T17:03:32.981Z,8.88
2023-04-05T17:06:06.344Z,6.90
2023-04-05T17:08:38.086Z,7.85
2023-04-05T17:11:08.709Z,7.43
2023-04-05T17:13:37.174Z,7.32
2023-04-05T17:16:05.798Z,5.35
2023-04-05T17:18:34.344Z,6.07
2023-04-05T17:21:02.920Z,7.28
2023-04-05T17:23:31.399Z,7.47
2023-04-05T17:26:01.258Z,7.53
2023-04-05T17:28:29.664Z,6.13
2023-04-05T17:30:58.106Z,6.30
2023-04-05T17:33:26.998Z,5.57
2023-04-05T17:35:55.825Z,5.13
2023-04-05T17:38:24.375Z,6.80
2023-04-05T17:40:52.824Z,10.23
2023-04-05T17:43:22.747Z,7.55
2023-04-05T17:45:51.160Z,7.00
2023-04-05T17:48:19.885Z,5.65
2023-04-05T17:50:48.578Z,7.65
2023-04-05T17:53:17.180Z,7.28
2023-04-05T17:55:45.711Z,9.25
2023-04-05T17:58:14.324Z,6.45
2023-04-05T18:01:03.051Z,7.93
2023-04-05T18:03:31.810Z,9.07
2023-04-05T18:06:00.410Z,16.58
2023-04-05T18:08:29.173Z,24.00
2023-04-05T18:10:58.186Z,26.38
2023-04-05T18:13:27.044Z,25.02
2023-04-05T18:15:57.317Z,30.50
2023-04-05T18:18:25.995Z,31.60
2023-04-05T18:20:55.273Z,16.55
2023-04-05T18:23:24.779Z,10.55
2023-04-05T18:25:53.749Z,17.17
2023-04-05T18:28:23.525Z,12.63
2023-04-05T18:30:52.687Z,10.40
2023-04-05T18:33:23.575Z,8.80
2023-04-05T18:35:52.381Z,7.00
2023-04-05T18:38:21.366Z,10.60
2023-04-05T18:40:49.817Z,9.98
2023-04-05T18:43:18.353Z,9.68
2023-04-05T18:45:46.918Z,10.68
2023-04-05T18:48:15.464Z,8.50
2023-04-05T18:50:45.737Z,8.88
2023-04-05T18:53:14.194Z,8.63
2023-04-05T18:55:42.575Z,9.13
2023-04-05T18:58:11.023Z,6.45
2023-04-05T19:00:39.869Z,8.95
2023-04-05T19:03:08.521Z,6.45
2023-04-05T19:05:37.134Z,7.20
2023-04-05T19:08:07.355Z,7.97
2023-04-05T19:10:35.731Z,9.88
2023-04-05T19:13:04.123Z,16.10
2023-04-05T19:15:32.604Z,45.00
2023-04-05T19:18:01.523Z,62.78
2023-04-05T19:20:29.973Z,63.33
2023-04-05T19:22:58.416Z,74.38
2023-04-05T19:25:28.249Z,82.50
2023-04-05T19:27:57.120Z,63.13
2023-04-05T19:30:25.481Z,54.15
2023-04-05T19:32:56.565Z,63.40
2023-04-05T19:35:25.371Z,77.53
2023-04-05T19:37:53.800Z,61.30
2023-04-05T19:40:23.440Z,53.03
2023-04-05T19:42:53.496Z,56.58
2023-04-05T19:45:26.552Z,58.65
2023-04-05T19:47:55.542Z,50.28
2023-04-05T19:50:40.854Z,57.13
2023-04-05T19:53:09.744Z,41.95
2023-04-05T19:55:38.998Z,35.58
2023-04-05T19:58:09.529Z,33.70
2023-04-05T20:00:39.178Z,30.80
2023-04-05T20:03:10.058Z,23.23
2023-04-05T20:05:56.124Z,17.25
2023-04-05T20:08:24.546Z,17.33
2023-04-05T20:10:53.066Z,13.07
2023-04-05T20:13:23.355Z,12.43
2023-04-05T20:15:52.506Z,8.82
2023-04-05T20:18:23.084Z,7.70
2023-04-05T20:20:51.547Z,10.98
2023-04-05T20:23:22.027Z,10.40
2023-04-05T20:25:51.190Z,12.02
2023-04-05T20:28:38.192Z,8.90
2023-04-05T20:31:09.172Z,6.78
2023-04-05T20:33:43.295Z,6.72
2023-04-05T20:36:12.471Z,5.78
2023-04-05T20:38:41.562Z,5.85
2023-04-05T20:41:11.453Z,7.88
2023-04-05T20:43:40.900Z,5.75
2023-04-05T20:46:11.469Z,6.13
2023-04-05T20:48:40.492Z,18.63
2023-04-05T20:51:09.789Z,9.95
2023-04-05T20:53:38.927Z,12.98
2023-04-05T20:56:08.249Z,9.48
2023-04-05T20:58:37.305Z,7.18
2023-04-05T21:01:07.627Z,7.20
2023-04-05T21:03:38.296Z,6.40
2023-04-05T21:06:08.163Z,6.32
2023-04-05T21:08:38.086Z,5.30
2023-04-05T21:11:07.052Z,7.13
2023-04-05T21:13:35.832Z,6.38
2023-04-05T21:16:04.551Z,6.93
2023-04-05T21:18:33.450Z,7.30
2023-04-05T21:21:03.344Z,6.88
2023-04-05T21:23:34.002Z,6.57
2023-04-05T21:26:04.368Z,8.10
2023-04-05T21:28:33.354Z,14.02
2023-04-05T21:31:01.843Z,12.63
2023-04-05T21:33:30.607Z,12.10
2023-04-05T21:35:59.171Z,9.82
2023-04-05T21:38:28.982Z,7.47
2023-04-05T21:40:57.383Z,8.40
2023-04-05T21:43:25.766Z,10.68
2023-04-05T21:45:54.146Z,8.65
2023-04-05T21:48:24.492Z,7.07
2023-04-05T21:50:52.917Z,6.38
2023-04-05T21:53:22.836Z,5.80
2023-04-05T21:55:52.853Z,6.97
2023-04-05T21:58:21.477Z,6.13
2023-04-05T22:00:49.925Z,7.45
2023-04-05T22:03:18.584Z,8.00
2023-04-05T22:05:47.035Z,8.00
2023-04-05T22:08:15.709Z,7.25
2023-04-05T22:10:44.270Z,7.78
2023-04-05T22:13:14.061Z,8.75
2023-04-05T22:15:44.023Z,6.63
2023-04-05T22:18:12.498Z,6.30
2023-04-05T22:20:40.993Z,6.63
2023-04-05T22:23:09.416Z,10.98
2023-04-05T22:25:37.928Z,8.82
2023-04-05T22:28:06.545Z,11.57
2023-04-05T22:30:43.897Z,8.40
2023-04-05T22:33:13.574Z,8.93
2023-04-05T22:35:42.841Z,8.07
2023-04-05T22:38:11.425Z,8.38
2023-04-05T22:40:40.002Z,7.90
2023-04-05T22:43:09.501Z,10.82
2023-04-05T22:45:39.433Z,8.93
2023-04-05T22:48:08.023Z,7.55
2023-04-05T22:50:36.528Z,9.10
2023-04-05T22:53:05.080Z,10.15
2023-04-05T22:55:33.762Z,9.30
2023-04-05T22:58:02.239Z,7.95
2023-04-05T23:00:30.789Z,8.40
2023-04-05T23:03:00.742Z,9.27
2023-04-05T23:05:29.176Z,10.60
2023-04-05T23:07:57.585Z,8.98
2023-04-05T23:10:26.064Z,10.68
2023-04-05T23:12:54.472Z,10.65
2023-04-05T23:15:22.855Z,13.18
2023-04-05T23:17:51.616Z,13.45
2023-04-05T23:20:21.467Z,11.55
2023-04-05T23:22:49.977Z,14.13
2023-04-05T23:25:18.427Z,13.82
2023-04-05T23:27:46.912Z,14.10
2023-04-05T23:30:15.550Z,12.88
2023-04-05T23:32:43.972Z,16.05
2023-04-05T23:35:12.446Z,12.70
2023-04-05T23:37:42.287Z,15.82
2023-04-05T23:40:11.427Z,12.00
2023-04-05T23:42:39.864Z,15.50
2023-04-05T23:45:10.578Z,13.57
2023-04-05T23:47:39.254Z,13.73
2023-04-05T23:50:08.373Z,11.35
2023-04-05T23:52:36.821Z,13.95
2023-04-05T23:55:07.067Z,13.80
2023-04-05T23:57:36.105Z,12.38
